createdAt,value
2023-08-15T00:20:24.775Z,11.33
2023-08-15T00:50:27.653Z,12.20
2023-08-15T01:20:30.775Z,12.80
2023-08-15T01:50:33.679Z,14.27
2023-08-15T02:20:37.245Z,16.70
2023-08-15T02:50:40.309Z,14.50
2023-08-15T03:20:44.113Z,17.13
2023-08-15T03:50:47.154Z,13.73
2023-08-15T04:20:51.377Z,14.87
2023-08-15T04:50:54.292Z,13.40
2023-08-15T05:20:58.905Z,12.57
2023-08-15T05:51:01.876Z,10.53
2023-08-15T06:21:06.301Z,10.80
2023-08-15T06:51:09.186Z,9.60
2023-08-15T07:21:12.153Z,9.97
2023-08-15T07:51:15.765Z,7.97
2023-08-15T08:21:18.801Z,9.85
2023-08-15T08:51:22.020Z,8.07
2023-08-15T09:21:25.207Z,8.70
2023-08-15T09:51:28.583Z,6.93
2023-08-15T10:21:31.938Z,8.20
2023-08-15T10:51:35.073Z,6.75
2023-08-15T11:21:38.384Z,6.17
2023-08-15T11:51:41.396Z,6.07
2023-08-15T12:21:44.720Z,6.60
2023-08-15T12:51:47.909Z,8.07
2023-08-15T13:21:51.191Z,5.35
2023-08-15T13:51:54.556Z,4.87
2023-08-15T14:21:58.516Z,5.17
2023-08-15T14:52:01.553Z,5.47
2023-08-15T15:22:05.100Z,6.30
2023-08-15T15:52:08.142Z,6.50
2023-08-15T16:22:11.213Z,5.77
2023-08-15T16:52:14.102Z,6.63
2023-08-15T17:22:17.237Z,10.43
2023-08-15T17:52:20.979Z,7.87
2023-08-15T18:22:24.814Z,10.37
2023-08-15T18:52:28.259Z,7.63
2023-08-15T19:22:31.256Z,7.13
2023-08-15T19:52:34.579Z,9.67
2023-08-15T20:22:37.711Z,8.30
2023-08-15T20:52:41.219Z,11.50
2023-08-15T21:22:45.072Z,11.55
2023-08-15T21:52:48.829Z,11.37
2023-08-15T22:22:51.817Z,13.73
2023-08-15T23:23:45.900Z,13.30
2023-08-15T23:53:48.953Z,9.73
